createdAt,value
2022-11-17T00:00:48.065Z,98.35
2022-11-17T00:03:16.968Z,98.18
2022-11-17T00:05:45.730Z,98.36
2022-11-17T00:08:15.405Z,98.71
2022-11-17T00:10:43.677Z,99.56
2022-11-17T00:13:29.342Z,100.00
2022-11-17T00:15:57.662Z,100.00
2022-11-17T00:18:43.786Z,100.00
2022-11-17T00:21:23.816Z,100.00
2022-11-17T00:23:54.082Z,100.00
2022-11-17T00:26:24.077Z,100.00
2022-11-17T00:28:53.834Z,100.00
2022-11-17T00:31:41.196Z,99.43
2022-11-17T00:34:14.020Z,100.00
2022-11-17T00:36:44.191Z,99.67
2022-11-17T00:39:15.764Z,99.93
2022-11-17T00:41:44.461Z,100.00
2022-11-17T00:44:13.345Z,100.00
2022-11-17T00:46:42.000Z,100.00
2022-11-17T00:49:11.643Z,100.00
2022-11-17T00:51:40.088Z,100.00
2022-11-17T00:54:11.810Z,100.00
2022-11-17T00:56:41.977Z,100.00
2022-11-17T00:59:10.505Z,99.57
2022-11-17T01:01:39.825Z,99.57
2022-11-17T01:04:08.682Z,99.89
2022-11-17T01:06:39.306Z,99.29
2022-11-17T01:09:12.392Z,99.63
2022-11-17T01:11:42.440Z,99.49
2022-11-17T01:14:14.007Z,99.88
2022-11-17T01:16:42.524Z,99.46
2022-11-17T01:19:12.546Z,99.45
2022-11-17T01:21:40.929Z,98.17
2022-11-17T01:24:12.301Z,97.95
2022-11-17T01:26:42.629Z,98.28
2022-11-17T01:29:14.017Z,98.54
2022-11-17T01:31:44.370Z,98.85
2022-11-17T01:34:13.261Z,98.73
2022-11-17T01:37:00.974Z,98.04
2022-11-17T01:39:31.664Z,98.55
2022-11-17T01:42:04.589Z,98.83
2022-11-17T01:44:59.268Z,98.46
2022-11-17T01:47:33.961Z,98.20
2022-11-17T01:50:08.171Z,98.37
2022-11-17T01:52:39.123Z,98.57
2022-11-17T01:55:09.733Z,98.53
2022-11-17T01:57:45.158Z,98.12
2022-11-17T02:00:14.513Z,98.79
2022-11-17T02:02:47.553Z,99.68
2022-11-17T02:05:29.449Z,99.41
2022-11-17T02:08:00.837Z,98.45
2022-11-17T02:10:31.905Z,98.11
2022-11-17T02:13:01.915Z,98.15
2022-11-17T02:15:30.584Z,97.79
2022-11-17T02:18:00.404Z,97.79
2022-11-17T02:20:42.592Z,98.67
2022-11-17T02:23:41.939Z,99.04
2022-11-17T02:26:25.226Z,98.55
2022-11-17T02:29:04.270Z,98.73
2022-11-17T02:31:43.575Z,98.72
2022-11-17T02:34:24.866Z,98.16
2022-11-17T02:36:59.999Z,98.24
2022-11-17T02:39:34.637Z,98.43
2022-11-17T02:42:10.358Z,98.45
2022-11-17T02:44:43.133Z,98.77
2022-11-17T02:47:16.678Z,99.25
2022-11-17T02:49:50.253Z,99.38
2022-11-17T02:52:20.181Z,100.00
2022-11-17T02:54:48.468Z,100.00
2022-11-17T02:57:29.909Z,100.00
2022-11-17T03:00:02.117Z,99.81
2022-11-17T03:02:48.028Z,99.85
2022-11-17T03:05:21.870Z,100.00
2022-11-17T03:08:08.106Z,100.00
2022-11-17T03:10:50.374Z,100.00
2022-11-17T03:13:25.120Z,99.81
2022-11-17T03:16:00.604Z,99.53
2022-11-17T03:18:36.161Z,99.68
2022-11-17T03:21:11.809Z,98.20
2022-11-17T03:23:43.713Z,98.94
2022-11-17T03:26:14.755Z,99.36
2022-11-17T03:28:47.407Z,99.22
2022-11-17T03:31:18.681Z,99.61
2022-11-17T03:33:50.653Z,98.71
2022-11-17T03:36:23.897Z,98.68
2022-11-17T03:38:58.116Z,99.14
2022-11-17T03:41:29.857Z,99.44
2022-11-17T03:44:00.046Z,99.62
2022-11-17T03:46:31.265Z,99.60
2022-11-17T03:49:09.912Z,100.00
2022-11-17T03:51:38.804Z,100.00
2022-11-17T03:54:08.832Z,99.71
2022-11-17T03:56:45.323Z,99.93
2022-11-17T03:59:18.608Z,99.36
2022-11-17T04:01:48.343Z,99.13
2022-11-17T04:04:18.074Z,99.78
2022-11-17T04:06:46.907Z,100.00
2022-11-17T04:09:17.651Z,100.00
2022-11-17T04:12:07.457Z,100.00
2022-11-17T04:14:53.082Z,100.00
2022-11-17T04:17:22.978Z,100.00
2022-11-17T04:19:51.313Z,100.00
2022-11-17T04:22:19.621Z,100.00
2022-11-17T04:24:47.923Z,100.00
2022-11-17T04:27:33.693Z,100.00
2022-11-17T04:30:02.022Z,100.00
2022-11-17T04:32:31.813Z,100.00
2022-11-17T04:35:00.212Z,100.00
2022-11-17T04:37:28.534Z,100.00
2022-11-17T04:39:56.831Z,100.00
2022-11-17T04:42:24.169Z,100.00
2022-11-17T04:44:52.516Z,100.00
2022-11-17T04:47:20.842Z,100.00
2022-11-17T04:49:50.533Z,100.00
2022-11-17T04:52:18.881Z,100.00
2022-11-17T04:54:47.176Z,100.00
2022-11-17T04:57:15.514Z,100.00
2022-11-17T04:59:43.837Z,100.00
2022-11-17T05:02:12.239Z,100.00
2022-11-17T05:04:59.081Z,100.00
2022-11-17T05:07:28.854Z,100.00
2022-11-17T05:09:57.248Z,100.00
2022-11-17T05:12:42.850Z,100.00
2022-11-17T05:15:11.357Z,100.00
2022-11-17T05:17:38.662Z,100.00
2022-11-17T05:20:07.888Z,100.00
2022-11-17T05:22:54.759Z,100.00
2022-11-17T05:25:23.101Z,100.00
2022-11-17T05:27:51.414Z,100.00
2022-11-17T05:30:19.718Z,100.00
2022-11-17T05:32:48.050Z,100.00
2022-11-17T05:35:16.449Z,100.00
2022-11-17T05:37:46.117Z,100.00
2022-11-17T05:40:14.442Z,100.00
2022-11-17T05:42:42.760Z,100.00
2022-11-17T05:45:11.379Z,100.00
2022-11-17T05:47:40.123Z,100.00
2022-11-17T05:50:08.804Z,100.00
2022-11-17T05:52:37.166Z,100.00
2022-11-17T05:55:08.322Z,100.00
2022-11-17T05:57:36.797Z,100.00
2022-11-17T06:00:06.249Z,100.00
2022-11-17T06:02:40.472Z,100.00
2022-11-17T06:05:12.368Z,100.00
2022-11-17T06:07:44.646Z,100.00
2022-11-17T06:10:14.518Z,100.00
2022-11-17T06:12:42.798Z,100.00
2022-11-17T06:15:11.669Z,100.00
2022-11-17T06:17:44.099Z,100.00
2022-11-17T06:20:16.737Z,100.00
2022-11-17T06:22:48.303Z,100.00
2022-11-17T06:25:20.504Z,100.00
2022-11-17T06:27:51.425Z,100.00
2022-11-17T06:30:20.207Z,100.00
2022-11-17T06:32:50.428Z,100.00
2022-11-17T06:35:18.998Z,100.00
2022-11-17T06:37:47.343Z,100.00
2022-11-17T06:40:16.492Z,100.00
2022-11-17T06:43:08.312Z,100.00
2022-11-17T06:45:37.862Z,100.00
2022-11-17T06:48:07.241Z,100.00
2022-11-17T06:50:35.675Z,100.00
2022-11-17T06:53:07.089Z,100.00
2022-11-17T06:55:36.692Z,100.00
2022-11-17T06:58:08.133Z,100.00
2022-11-17T07:00:37.278Z,100.00
2022-11-17T07:03:09.203Z,100.00
2022-11-17T07:05:40.197Z,100.00
2022-11-17T07:08:10.183Z,100.00
2022-11-17T07:10:38.880Z,100.00
2022-11-17T07:13:08.914Z,100.00
2022-11-17T07:15:37.331Z,100.00
2022-11-17T07:18:05.727Z,100.00
2022-11-17T07:20:34.078Z,100.00
2022-11-17T07:23:02.490Z,100.00
2022-11-17T07:25:30.892Z,100.00
2022-11-17T07:28:00.293Z,100.00
2022-11-17T07:30:30.262Z,100.00
2022-11-17T07:32:59.902Z,100.00
2022-11-17T07:35:29.068Z,100.00
2022-11-17T07:38:01.544Z,100.00
2022-11-17T07:40:30.416Z,99.05
2022-11-17T07:42:58.846Z,99.10
2022-11-17T07:45:31.882Z,98.50
2022-11-17T07:48:03.508Z,98.74
2022-11-17T07:50:31.887Z,98.62
2022-11-17T07:53:00.535Z,98.23
2022-11-17T07:55:28.937Z,97.89
2022-11-17T07:57:59.031Z,97.98
2022-11-17T08:00:28.447Z,97.57
2022-11-17T08:02:57.301Z,97.97
2022-11-17T08:05:30.560Z,98.21
2022-11-17T08:08:00.313Z,98.18
2022-11-17T08:10:31.348Z,97.97
2022-11-17T08:13:00.878Z,97.77
2022-11-17T08:15:29.549Z,97.47
2022-11-17T08:17:59.509Z,96.97
2022-11-17T08:20:30.229Z,96.26
2022-11-17T08:22:58.743Z,96.51
2022-11-17T08:25:28.309Z,95.82
2022-11-17T08:27:57.825Z,95.91
2022-11-17T08:30:28.580Z,95.53
2022-11-17T08:32:56.944Z,95.59
2022-11-17T08:35:26.349Z,95.45
2022-11-17T08:37:56.344Z,94.91
2022-11-17T08:40:24.739Z,94.91
2022-11-17T08:43:00.412Z,95.05
2022-11-17T08:45:29.700Z,94.67
2022-11-17T08:47:58.337Z,94.77
2022-11-17T08:50:27.137Z,94.13
2022-11-17T08:52:56.884Z,94.75
2022-11-17T08:55:26.393Z,94.66
2022-11-17T08:57:54.973Z,95.09
2022-11-17T09:00:23.779Z,94.96
2022-11-17T09:02:52.282Z,94.49
2022-11-17T09:05:21.068Z,94.94
2022-11-17T09:07:49.580Z,94.86
2022-11-17T09:10:19.555Z,95.04
2022-11-17T09:12:47.922Z,94.95
2022-11-17T09:15:16.538Z,94.57
2022-11-17T09:17:47.727Z,94.97
2022-11-17T09:20:16.942Z,95.48
2022-11-17T09:22:45.449Z,95.43
2022-11-17T09:25:14.611Z,95.45
2022-11-17T09:27:44.416Z,95.35
2022-11-17T09:30:13.274Z,95.58
2022-11-17T09:32:41.903Z,95.84
2022-11-17T09:35:10.929Z,96.00
2022-11-17T09:37:39.399Z,96.80
2022-11-17T09:40:11.713Z,97.16
2022-11-17T09:42:41.261Z,97.22
2022-11-17T09:45:19.354Z,95.92
2022-11-17T09:48:07.043Z,96.81
2022-11-17T09:50:42.595Z,97.11
2022-11-17T09:53:16.728Z,97.60
2022-11-17T09:55:47.300Z,97.54
2022-11-17T09:58:23.614Z,97.10
2022-11-17T10:00:54.403Z,97.24
2022-11-17T10:03:26.769Z,97.14
2022-11-17T10:05:55.632Z,97.54
2022-11-17T10:08:35.983Z,97.40
2022-11-17T10:11:24.804Z,96.89
2022-11-17T10:13:53.317Z,97.46
2022-11-17T10:16:23.300Z,97.42
2022-11-17T10:18:51.717Z,97.82
2022-11-17T10:21:20.126Z,98.12
2022-11-17T10:23:57.115Z,98.29
2022-11-17T10:26:25.784Z,97.73
2022-11-17T10:29:08.695Z,97.85
2022-11-17T10:31:44.182Z,97.51
2022-11-17T10:34:13.965Z,97.34
2022-11-17T10:36:51.524Z,97.04
2022-11-17T10:39:38.364Z,96.81
2022-11-17T10:42:22.587Z,96.39
2022-11-17T10:44:54.527Z,97.26
2022-11-17T10:47:30.190Z,97.31
2022-11-17T10:50:18.868Z,96.47
2022-11-17T10:52:47.699Z,96.72
2022-11-17T10:55:26.522Z,96.76
2022-11-17T10:57:59.434Z,96.82
2022-11-17T11:00:32.980Z,97.22
2022-11-17T11:03:18.783Z,96.63
2022-11-17T11:06:05.170Z,96.62
2022-11-17T11:08:41.719Z,96.75
2022-11-17T11:11:18.610Z,96.53
2022-11-17T11:13:53.338Z,96.92
2022-11-17T11:16:21.763Z,95.94
2022-11-17T11:18:53.482Z,95.94
2022-11-17T11:21:37.931Z,95.57
2022-11-17T11:24:16.380Z,95.29
2022-11-17T11:26:54.037Z,95.70
2022-11-17T11:29:30.975Z,95.97
2022-11-17T11:32:18.834Z,95.88
2022-11-17T11:35:31.723Z,95.62
2022-11-17T11:38:15.954Z,95.43
2022-11-17T11:41:02.430Z,95.71
2022-11-17T11:43:40.921Z,96.12
2022-11-17T11:46:17.114Z,96.08
2022-11-17T11:48:49.053Z,96.43
2022-11-17T11:51:23.662Z,96.40
2022-11-17T11:53:58.046Z,96.31
2022-11-17T11:56:29.266Z,95.84
2022-11-17T11:59:01.930Z,95.78
2022-11-17T12:01:38.119Z,95.51
2022-11-17T12:04:17.816Z,95.79
2022-11-17T12:06:54.701Z,94.91
2022-11-17T12:09:47.699Z,94.40
2022-11-17T12:12:18.418Z,93.81
2022-11-17T12:15:13.620Z,94.35
2022-11-17T12:17:57.562Z,94.40
2022-11-17T12:20:57.086Z,94.90
2022-11-17T12:23:49.033Z,94.95
2022-11-17T12:26:26.494Z,95.08
2022-11-17T12:29:26.488Z,94.70
2022-11-17T12:31:56.027Z,95.09
2022-11-17T12:34:27.877Z,94.71
2022-11-17T12:37:19.370Z,94.40
2022-11-17T12:40:31.110Z,94.86
2022-11-17T12:43:23.772Z,95.44
2022-11-17T12:46:05.125Z,95.22
2022-11-17T12:48:36.759Z,95.29
2022-11-17T12:51:12.515Z,94.91
2022-11-17T12:53:53.657Z,94.07
2022-11-17T12:56:38.456Z,94.36
2022-11-17T12:59:53.360Z,94.40
2022-11-17T13:02:37.500Z,94.11
2022-11-17T13:05:14.547Z,94.23
2022-11-17T13:07:42.866Z,94.35
2022-11-17T13:10:25.546Z,94.26
2022-11-17T13:13:12.979Z,93.87
2022-11-17T13:15:44.644Z,94.11
2022-11-17T13:18:22.054Z,94.16
2022-11-17T13:20:50.425Z,94.00
2022-11-17T13:23:22.433Z,94.77
2022-11-17T13:25:51.299Z,93.76
2022-11-17T13:28:33.728Z,93.79
2022-11-17T13:31:03.631Z,93.89
2022-11-17T13:33:36.951Z,94.03
2022-11-17T13:36:17.859Z,92.63
2022-11-17T13:38:50.258Z,93.21
2022-11-17T13:41:20.907Z,93.17
2022-11-17T13:43:50.941Z,93.21
2022-11-17T13:46:20.928Z,93.33
2022-11-17T13:48:51.565Z,93.49
2022-11-17T13:51:33.147Z,93.30
2022-11-17T13:54:07.203Z,93.30
2022-11-17T13:56:38.650Z,93.42
2022-11-17T13:59:22.879Z,93.26
2022-11-17T14:02:24.338Z,93.74
2022-11-17T14:05:23.039Z,93.33
2022-11-17T14:07:52.953Z,93.28
2022-11-17T14:10:33.016Z,93.58
2022-11-17T14:13:29.859Z,93.39
2022-11-17T14:16:00.746Z,93.56
2022-11-17T14:18:34.220Z,93.78
2022-11-17T14:21:14.719Z,93.74
2022-11-17T14:23:44.220Z,93.45
2022-11-17T14:26:20.268Z,93.62
2022-11-17T14:28:50.217Z,93.45
2022-11-17T14:31:18.875Z,93.51
2022-11-17T14:33:50.441Z,93.23
2022-11-17T14:36:19.330Z,92.66
2022-11-17T14:38:47.930Z,92.98
2022-11-17T14:41:17.103Z,92.69
2022-11-17T14:43:45.905Z,92.13
2022-11-17T14:46:20.605Z,92.98
2022-11-17T14:48:50.445Z,93.04
2022-11-17T14:51:19.211Z,93.32
2022-11-17T14:53:47.877Z,93.46
2022-11-17T14:56:18.932Z,93.67
2022-11-17T14:58:50.491Z,93.58
2022-11-17T15:01:20.828Z,93.79
2022-11-17T15:03:52.866Z,93.82
2022-11-17T15:06:21.383Z,94.42
2022-11-17T15:08:54.592Z,94.79
2022-11-17T15:11:23.003Z,94.64
2022-11-17T15:13:51.437Z,94.18
2022-11-17T15:16:20.127Z,94.59
2022-11-17T15:18:50.510Z,95.35
2022-11-17T15:21:18.978Z,95.15
2022-11-17T15:23:47.596Z,94.89
2022-11-17T15:26:18.727Z,95.02
2022-11-17T15:28:47.666Z,94.51
2022-11-17T15:31:17.842Z,94.42
2022-11-17T15:33:47.860Z,94.40
2022-11-17T15:36:20.806Z,94.89
2022-11-17T15:38:49.826Z,95.16
2022-11-17T15:41:18.298Z,95.24
2022-11-17T15:43:46.655Z,95.33
2022-11-17T15:46:17.321Z,95.61
2022-11-17T15:48:47.254Z,95.09
2022-11-17T15:51:19.179Z,95.62
2022-11-17T15:53:49.238Z,95.66
2022-11-17T15:56:19.894Z,96.82
2022-11-17T15:58:49.622Z,97.20
2022-11-17T16:01:26.747Z,97.38
2022-11-17T16:03:59.087Z,96.73
2022-11-17T16:06:29.124Z,98.09
2022-11-17T16:08:57.706Z,98.73
2022-11-17T16:11:27.012Z,97.36
2022-11-17T16:13:56.249Z,98.59
2022-11-17T16:16:26.194Z,98.32
2022-11-17T16:18:54.972Z,99.29
2022-11-17T16:21:23.534Z,100.00
2022-11-17T16:23:55.831Z,100.00
2022-11-17T16:26:26.972Z,100.00
2022-11-17T16:28:59.255Z,100.00
2022-11-17T16:31:29.271Z,100.00
2022-11-17T16:33:59.323Z,100.00
2022-11-17T16:36:34.557Z,100.00
2022-11-17T16:39:07.911Z,100.00
2022-11-17T16:41:37.887Z,100.00
2022-11-17T16:44:09.551Z,100.00
2022-11-17T16:46:38.188Z,100.00
2022-11-17T16:49:08.306Z,100.00
2022-11-17T16:51:36.786Z,100.00
2022-11-17T16:54:08.190Z,100.00
2022-11-17T16:56:36.561Z,100.00
2022-11-17T16:59:05.010Z,100.00
2022-11-17T17:01:34.799Z,100.00
2022-11-17T17:04:06.344Z,100.00
2022-11-17T17:06:35.365Z,100.00
2022-11-17T17:09:07.626Z,100.00
2022-11-17T17:11:37.373Z,100.00
2022-11-17T17:14:08.310Z,100.00
2022-11-17T17:16:38.667Z,100.00
2022-11-17T17:19:09.266Z,100.00
2022-11-17T17:21:38.815Z,100.00
2022-11-17T17:24:09.773Z,100.00
2022-11-17T17:26:39.218Z,100.00
2022-11-17T17:29:08.085Z,100.00
2022-11-17T17:31:38.469Z,100.00
2022-11-17T17:34:07.929Z,100.00
2022-11-17T17:36:38.489Z,100.00
2022-11-17T17:39:08.729Z,100.00
2022-11-17T17:41:40.908Z,100.00
2022-11-17T17:44:14.529Z,100.00
2022-11-17T17:46:43.610Z,100.00
2022-11-17T17:49:12.609Z,100.00
2022-11-17T17:51:44.081Z,100.00
2022-11-17T17:54:17.711Z,100.00
2022-11-17T17:56:46.630Z,100.00
2022-11-17T17:59:16.039Z,100.00
2022-11-17T18:01:46.214Z,100.00
2022-11-17T18:04:16.460Z,100.00
2022-11-17T18:06:47.931Z,100.00
2022-11-17T18:09:20.467Z,100.00
2022-11-17T18:11:51.157Z,100.00
2022-11-17T18:14:24.346Z,100.00
2022-11-17T18:16:53.908Z,100.00
2022-11-17T18:19:25.754Z,100.00
2022-11-17T18:21:56.589Z,100.00
2022-11-17T18:24:26.614Z,100.00
2022-11-17T18:26:54.979Z,100.00
2022-11-17T18:29:23.392Z,100.00
2022-11-17T18:31:51.893Z,100.00
2022-11-17T18:34:21.756Z,100.00
2022-11-17T18:36:50.639Z,100.00
2022-11-17T18:39:19.750Z,100.00
2022-11-17T18:41:49.760Z,100.00
2022-11-17T18:44:19.915Z,100.00
2022-11-17T18:46:48.825Z,100.00
2022-11-17T18:49:17.468Z,100.00
2022-11-17T18:51:46.427Z,100.00
2022-11-17T18:54:15.086Z,100.00
2022-11-17T18:56:44.617Z,100.00
2022-11-17T18:59:14.881Z,100.00
2022-11-17T19:01:44.216Z,100.00
2022-11-17T19:04:14.479Z,100.00
2022-11-17T19:06:43.139Z,100.00
2022-11-17T19:09:11.871Z,100.00
2022-11-17T19:11:40.452Z,100.00
2022-11-17T19:14:08.866Z,100.00
2022-11-17T19:16:44.102Z,100.00
2022-11-17T19:19:14.990Z,100.00
2022-11-17T19:21:44.395Z,100.00
2022-11-17T19:24:13.198Z,100.00
2022-11-17T19:26:42.694Z,100.00
2022-11-17T19:29:17.140Z,100.00
2022-11-17T19:31:48.814Z,100.00
2022-11-17T19:34:17.421Z,100.00
2022-11-17T19:40:20.214Z,100.00
2022-11-17T19:42:50.041Z,100.00
2022-11-17T19:45:18.968Z,100.00
2022-11-17T19:47:49.293Z,100.00
2022-11-17T19:50:18.312Z,100.00
2022-11-17T19:52:46.782Z,100.00
2022-11-17T19:55:15.188Z,100.00
2022-11-17T19:57:43.553Z,100.00
2022-11-17T20:00:13.237Z,100.00
2022-11-17T20:02:41.664Z,100.00
2022-11-17T20:05:11.606Z,100.00
2022-11-17T20:07:40.150Z,100.00
2022-11-17T20:10:09.059Z,100.00
2022-11-17T20:12:37.667Z,100.00
2022-11-17T20:15:06.474Z,100.00
2022-11-17T20:17:34.899Z,100.00
2022-11-17T20:20:03.291Z,100.00
2022-11-17T20:22:33.575Z,100.00
2022-11-17T20:25:03.680Z,100.00
2022-11-17T20:27:32.852Z,100.00
2022-11-17T20:30:01.568Z,100.00
2022-11-17T20:32:30.729Z,100.00
2022-11-17T20:34:59.234Z,100.00
2022-11-17T20:37:27.575Z,100.00
2022-11-17T20:40:05.257Z,100.00
2022-11-17T20:42:33.629Z,100.00
2022-11-17T20:45:01.966Z,100.00
2022-11-17T20:47:31.528Z,100.00
2022-11-17T20:50:00.403Z,100.00
2022-11-17T20:52:28.854Z,100.00
2022-11-17T20:54:58.647Z,100.00
2022-11-17T20:57:27.066Z,100.00
2022-11-17T20:59:55.464Z,100.00
2022-11-17T21:02:23.875Z,100.00
2022-11-17T21:04:52.378Z,100.00
2022-11-17T21:07:20.850Z,100.00
2022-11-17T21:09:49.213Z,100.00
2022-11-17T21:12:18.981Z,100.00
2022-11-17T21:14:47.319Z,100.00
2022-11-17T21:17:29.609Z,100.00
2022-11-17T21:19:57.926Z,100.00
2022-11-17T21:22:26.317Z,100.00
2022-11-17T21:24:54.660Z,100.00
2022-11-17T21:27:24.458Z,100.00
2022-11-17T21:29:52.884Z,100.00
2022-11-17T21:32:21.290Z,100.00
2022-11-17T21:34:50.029Z,100.00
2022-11-17T21:37:18.567Z,100.00
2022-11-17T21:39:46.903Z,100.00
2022-11-17T21:42:15.233Z,100.00
2022-11-17T21:44:45.018Z,100.00
2022-11-17T21:47:13.370Z,100.00
2022-11-17T21:49:41.766Z,100.00
2022-11-17T21:52:10.367Z,100.00
2022-11-17T21:54:38.807Z,100.00
2022-11-17T21:57:07.248Z,100.00
2022-11-17T21:59:35.677Z,100.00
2022-11-17T22:02:05.484Z,100.00
2022-11-17T22:04:33.942Z,100.00
2022-11-17T22:07:02.429Z,100.00
2022-11-17T22:09:30.853Z,100.00
2022-11-17T22:11:59.269Z,100.00
2022-11-17T22:14:27.679Z,100.00
2022-11-17T22:16:56.479Z,100.00
2022-11-17T22:19:29.368Z,100.00
2022-11-17T22:21:57.800Z,100.00
2022-11-17T22:24:26.167Z,100.00
2022-11-17T22:26:54.523Z,100.00
2022-11-17T22:29:23.036Z,100.00
2022-11-17T22:31:51.710Z,100.00
2022-11-17T22:34:20.276Z,100.00
2022-11-17T22:36:49.999Z,100.00
2022-11-17T22:39:19.666Z,100.00
2022-11-17T22:41:48.241Z,100.00
2022-11-17T22:44:17.294Z,100.00
2022-11-17T22:46:45.662Z,100.00
2022-11-17T22:49:14.468Z,100.00
2022-11-17T22:52:00.463Z,100.00
2022-11-17T22:54:30.415Z,100.00
2022-11-17T22:56:59.188Z,100.00
2022-11-17T22:59:28.457Z,100.00
2022-11-17T23:01:56.972Z,100.00
2022-11-17T23:04:25.834Z,100.00
2022-11-17T23:06:54.308Z,100.00
2022-11-17T23:09:22.773Z,100.00
2022-11-17T23:11:52.502Z,100.00
2022-11-17T23:14:20.865Z,100.00
2022-11-17T23:16:49.232Z,100.00
2022-11-17T23:19:17.912Z,100.00
2022-11-17T23:21:46.502Z,100.00
2022-11-17T23:24:14.900Z,100.00
2022-11-17T23:26:43.916Z,100.00
2022-11-17T23:29:14.016Z,100.00
2022-11-17T23:31:42.631Z,100.00
2022-11-17T23:34:12.113Z,100.00
2022-11-17T23:36:40.530Z,100.00
2022-11-17T23:39:09.092Z,100.00
2022-11-17T23:41:37.422Z,100.00
2022-11-17T23:44:06.378Z,100.00
2022-11-17T23:46:36.046Z,100.00
2022-11-17T23:49:04.671Z,100.00
2022-11-17T23:51:33.006Z,100.00
2022-11-17T23:54:02.908Z,100.00
2022-11-17T23:56:33.590Z,100.00
2022-11-17T23:59:02.032Z,100.00
